Arviat Airport
CYEK : rendu visible

Aérodrome :











RETROUVEZ-NOUS SUR...

 
LOGIN :

S'inscrire | Disclaimer

   EN    FR    IT 

 









Légende :    VFR   VFR Marginal   IFR   IFR Intensif   IFR Très Intensif
Visi : 
Plafond : 
>= 8 km
>= 3000ft
5 à 8 km
1000 à 3000 ft
1500m à 5 km
500 à 1000 ft
800 à 1500m
200 à 500 ft
< 800m
< 200 ft
Symboles :   Orages  Brouillard  Fortes neiges  Fortes précipitations  Vent > 20 kt






- Altitude de l'aérodrome : 32 ft
- Code IATA : YEK


CYEK - Arviat

DERNIER METAR :
  • 211600Z 31018G23KT 15SM IC DRSN SKC M21/M24 A2991 RMK SLP131

METARs EXPIRÉS :
  • 211500Z 31017G22KT 15SM IC DRSN SKC M22/M24 A2991 RMK SLP133
  • 211400Z 33018KT 15SM IC DRSN SKC M21/M23 A2993 RMK SLP139
  • 211300Z 32019KT 15SM IC DRSN SKC M21/M23 A2996 RMK AFT 00UTC/6.0CM/S0.2MM/SNW CVR/MUCH LOOSE SLP150

TAF AMD TAF CYEK
Valide du 21 à 14h jusqu'au 22 à 00h UTC


211411Z 2114/2124 33015G25KT P6SM IC SKC
BECMG 2120/2122 33010KT RMK NXT FCST BY 211800Z



MET'MAP, la Météo Aéronautique d'un coup d'oeil ! - Copyright ORBIFLY Décembre 2007 - Disclaimer

ORBIFLY MET'MAP TEAM :

Programmation & Développement : Alexandra Zaïnal
Conception & Développement : Baudouin d'Aumeries
Co-Programmation & Développement : Marc-Olivier Méhu
Soutien technique & logistique : Manuel Goepfert

Contact : metmap@orbifly.com




SOURCES & CREDITS :

   NOAA       Earth
Advisory